Time;durP1;ratioP1;P1;durP2;ratioP2;P2;SDS_P1;SDS_P2;PMS_P1;PMS_P2;Temp;Humidity;BMP_temperature;BMP_pressure;BME280_temperature;BME280_humidity;BME280_pressure;Samples;Min_cycle;Max_cycle;Signal;HPM_P1;HPM_P2
2022/01/12 00:02:12;;;;;;;39.13;25.60;;;;;;;2.08;100.00;103174.66;5089808;28;20178;-46
2022/01/12 00:04:38;;;;;;;37.92;26.42;;;;;;;1.98;100.00;103191.94;5090923;28;20236;-44
2022/01/12 00:07:04;;;;;;;41.38;26.80;;;;;;;1.96;100.00;103179.50;5089763;28;20177;-44
2022/01/12 00:09:30;;;;;;;35.88;25.65;;;;;;;2.06;100.00;103186.94;5091102;28;20643;-46
2022/01/12 00:11:55;;;;;;;38.67;25.88;;;;;;;2.01;100.00;103183.19;5090812;28;20178;-47
2022/01/12 00:14:20;;;;;;;41.67;27.60;;;;;;;1.98;100.00;103189.28;5090584;28;20178;-44
2022/01/12 00:16:48;;;;;;;41.33;27.60;;;;;;;1.98;100.00;103188.41;5090743;28;20173;-45
2022/01/12 00:19:14;;;;;;;41.67;26.95;;;;;;;1.96;100.00;103190.09;5090762;28;20170;-46
2022/01/12 00:21:40;;;;;;;42.30;25.98;;;;;;;1.98;100.00;103196.31;5090864;28;20174;-47
2022/01/12 00:24:07;;;;;;;43.63;27.58;;;;;;;1.96;100.00;103200.66;5090810;28;20181;-46
2022/01/12 00:34:34;;;;;;;47.80;29.05;;;;;;;1.95;100.00;103197.13;5088993;28;20170;-45
2022/01/12 00:36:59;;;;;;;50.47;29.60;;;;;;;1.95;100.00;103191.84;5090041;28;20177;-44
2022/01/12 00:39:25;;;;;;;40.95;28.35;;;;;;;1.98;100.00;103202.50;5089082;28;20595;-43
2022/01/12 00:41:51;;;;;;;46.67;30.15;;;;;;;1.98;100.00;103191.94;5089054;28;20174;-46
2022/01/12 00:44:25;;;;;;;44.05;29.20;;;;;;;2.01;100.00;103204.34;5088937;28;20178;-46
2022/01/12 00:46:52;;;;;;;44.67;29.13;;;;;;;1.97;100.00;103192.78;5090100;28;20193;-47
2022/01/12 00:49:19;;;;;;;46.17;29.38;;;;;;;1.99;100.00;103192.81;5090137;28;20614;-45
2022/01/12 00:51:47;;;;;;;44.78;28.63;;;;;;;2.01;100.00;103191.13;5090132;28;20166;-47
2022/01/12 00:54:13;;;;;;;46.25;29.60;;;;;;;1.98;100.00;103188.41;5090273;28;20185;-47
2022/01/12 00:56:38;;;;;;;47.47;29.73;;;;;;;2.02;100.00;103190.31;5089550;28;20549;-45
2022/01/12 00:59:04;;;;;;;48.10;30.20;;;;;;;2.02;100.00;103192.94;5090231;28;20178;-44
2022/01/12 01:01:29;;;;;;;48.85;30.13;;;;;;;2.01;100.00;103207.00;5090081;28;20192;-46
2022/01/12 01:03:55;;;;;;;48.97;30.88;;;;;;;2.03;100.00;103200.03;5089884;28;20296;-46
2022/01/12 01:06:22;;;;;;;48.95;30.50;;;;;;;1.95;100.00;103204.16;5088270;28;20293;-45
2022/01/12 01:08:51;;;;;;;50.30;30.50;;;;;;;2.02;100.00;103193.84;5089747;28;20170;-47
2022/01/12 01:11:19;;;;;;;47.08;29.30;;;;;;;2.09;100.00;103192.31;5072569;28;20173;-44
2022/01/12 01:14:01;;;;;;;43.03;27.95;;;;;;;2.18;100.00;103189.97;5088497;28;20174;-47
2022/01/12 01:16:48;;;;;;;47.00;29.83;;;;;;;2.07;100.00;103196.66;5087856;28;20251;-47
2022/01/12 01:27:32;;;;;;;52.05;30.55;;;;;;;2.04;100.00;103191.25;5088216;28;20670;-46
2022/01/12 01:29:58;;;;;;;45.65;29.30;;;;;;;2.13;100.00;103195.97;5089929;28;20170;-47
2022/01/12 01:32:25;;;;;;;53.47;30.92;;;;;;;2.01;100.00;103200.00;5088264;28;20661;-45
2022/01/12 01:34:51;;;;;;;50.50;31.33;;;;;;;1.96;100.00;103206.84;5088305;28;20700;-46
2022/01/12 01:37:20;;;;;;;54.03;31.88;;;;;;;1.98;100.00;103217.47;5089126;28;20642;-45
2022/01/12 01:39:47;;;;;;;55.15;31.42;;;;;;;1.99;100.00;103230.75;5088428;28;20181;-46
2022/01/12 01:42:26;;;;;;;54.25;31.05;;;;;;;2.02;100.00;103240.53;5088463;28;20205;-46
2022/01/12 01:55:37;;;;;;;58.47;31.77;;;;;;;2.02;100.00;103248.47;5088986;28;20189;-45
2022/01/12 01:58:03;;;;;;;52.65;31.05;;;;;;;2.01;100.00;103258.16;5089414;28;20650;-49
2022/01/12 02:00:32;;;;;;;54.30;31.88;;;;;;;2.03;100.00;103245.91;5088229;28;20549;-45
2022/01/12 02:03:03;;;;;;;58.47;32.40;;;;;;;2.04;100.00;103228.28;5087955;28;20166;-45
2022/01/12 02:05:39;;;;;;;54.65;32.15;;;;;;;2.04;100.00;103230.94;5087825;28;20202;-47
2022/01/12 02:08:05;;;;;;;50.63;29.40;;;;;;;2.10;100.00;103220.56;5088146;28;20174;-43
2022/01/12 02:10:34;;;;;;;55.30;31.23;;;;;;;2.01;100.00;103218.50;5071855;28;20178;-44
2022/01/12 02:13:01;;;;;;;54.88;31.80;;;;;;;2.01;100.00;103228.16;5088458;28;20272;-46
2022/01/12 02:15:26;;;;;;;52.88;29.95;;;;;;;2.19;100.00;103234.09;5087704;28;20205;-46
2022/01/12 02:18:10;;;;;;;52.70;30.48;;;;;;;2.09;100.00;103217.88;5087812;28;20170;-47
2022/01/12 02:35:47;;;;;;;57.97;30.73;;;;;;;2.17;100.00;103234.91;5092643;28;20728;-46
2022/01/12 02:40:31;;;;;;;59.22;31.95;;;;;;;2.14;100.00;103240.97;5092689;28;20545;-46
2022/01/12 02:51:10;;;;;;;60.72;30.50;;;;;;;2.19;100.00;103247.34;5092498;28;20184;-45
2022/01/12 02:53:43;;;;;;;56.83;29.90;;;;;;;2.26;100.00;103254.63;5110964;28;20197;-45
2022/01/12 02:56:20;;;;;;;52.72;29.52;;;;;;;2.26;100.00;103243.16;5101935;28;20216;-45
2022/01/12 02:58:47;;;;;;;53.00;29.27;;;;;;;2.29;100.00;103259.13;5092276;28;20201;-46
2022/01/12 03:04:02;;;;;;;60.55;30.15;;;;;;;2.28;100.00;103273.22;5091212;28;20215;-46
2022/01/12 03:06:34;;;;;;;55.75;29.80;;;;;;;2.32;100.00;103272.47;5090330;28;20213;-43
2022/01/12 03:09:00;;;;;;;58.92;31.00;;;;;;;2.40;100.00;103276.25;5090516;28;20170;-44
2022/01/12 03:11:28;;;;;;;64.00;30.88;;;;;;;2.39;100.00;103273.59;5090578;28;20630;-46
2022/01/12 03:13:57;;;;;;;57.15;30.00;;;;;;;2.35;100.00;103272.56;5090376;28;20182;-46
2022/01/12 03:16:25;;;;;;;62.38;32.15;;;;;;;2.31;100.00;103264.47;5090992;28;20535;-46
2022/01/12 03:18:56;;;;;;;60.15;29.52;;;;;;;2.37;100.00;103251.47;5090619;28;20166;-44
2022/01/12 03:21:25;;;;;;;60.45;29.60;;;;;;;2.34;100.00;103244.34;5090031;28;20170;-44
2022/01/12 03:23:51;;;;;;;62.90;30.38;;;;;;;2.31;100.00;103230.97;5090766;28;20264;-46
2022/01/12 03:26:18;;;;;;;54.60;29.67;;;;;;;2.33;100.00;103221.34;5091237;28;20289;-48
2022/01/12 03:28:44;;;;;;;62.75;30.48;;;;;;;2.37;100.00;103222.38;5090365;28;20607;-46
2022/01/12 03:31:20;;;;;;;62.72;29.90;;;;;;;2.36;100.00;103228.50;5091715;28;20198;-45
2022/01/12 03:36:28;;;;;;;62.58;29.73;;;;;;;2.34;100.00;103223.16;5091290;28;20190;-46
2022/01/12 03:38:54;;;;;;;63.08;31.85;;;;;;;2.40;100.00;103244.50;5090199;28;20234;-46
2022/01/12 03:41:20;;;;;;;66.13;30.48;;;;;;;2.43;100.00;103241.09;5090125;28;20182;-46
2022/01/12 03:43:46;;;;;;;71.00;31.60;;;;;;;2.45;100.00;103257.94;5089991;28;20165;-48
2022/01/12 03:46:14;;;;;;;69.88;31.13;;;;;;;2.44;100.00;103254.34;5089616;28;20595;-46
2022/01/12 03:48:40;;;;;;;66.22;30.00;;;;;;;2.46;100.00;103265.91;5090224;28;20264;-44
2022/01/12 03:51:05;;;;;;;66.40;30.17;;;;;;;2.47;100.00;103269.44;5089779;28;20264;-46
2022/01/12 03:53:31;;;;;;;66.50;29.45;;;;;;;2.55;100.00;103270.59;5089895;28;20214;-47
2022/01/12 03:55:56;;;;;;;76.38;31.52;;;;;;;2.45;100.00;103272.06;5090444;28;20193;-46
2022/01/12 03:58:22;;;;;;;65.15;28.40;;;;;;;2.53;100.00;103271.41;5090097;28;20238;-47
2022/01/12 04:00:48;;;;;;;73.00;31.00;;;;;;;2.47;100.00;103267.72;5089920;28;20170;-48
2022/01/12 04:03:15;;;;;;;75.88;29.65;;;;;;;2.49;100.00;103259.81;5089536;28;20177;-44
2022/01/12 04:08:20;;;;;;;79.35;31.52;;;;;;;2.52;100.00;103259.03;5090891;28;20586;-46
2022/01/12 04:10:51;;;;;;;86.07;33.08;;;;;;;2.53;100.00;103266.13;5089808;28;20554;-45
2022/01/12 04:13:19;;;;;;;69.80;28.90;;;;;;;2.57;100.00;103268.03;5089451;28;20583;-47
2022/01/12 04:15:55;;;;;;;76.50;29.55;;;;;;;2.54;100.00;103266.19;5088923;28;20682;-47
2022/01/12 04:18:21;;;;;;;73.25;30.45;;;;;;;2.56;100.00;103276.78;5072669;28;20617;-45
2022/01/12 04:20:49;;;;;;;106.95;30.98;;;;;;;2.53;100.00;103272.31;5088588;28;20285;-46
2022/01/12 04:23:19;;;;;;;75.45;30.48;;;;;;;2.57;100.00;103257.44;5089565;28;20240;-45
2022/01/12 04:25:46;;;;;;;93.38;31.25;;;;;;;2.57;100.00;103257.44;5090204;28;20296;-45
2022/01/12 04:28:12;;;;;;;76.72;29.83;;;;;;;2.60;100.00;103252.22;5090640;28;20663;-46
2022/01/12 04:30:38;;;;;;;98.40;30.60;;;;;;;2.55;100.00;103256.47;5089442;28;20241;-46
2022/01/12 04:33:04;;;;;;;72.97;28.70;;;;;;;2.59;100.00;103261.94;5090348;28;20258;-44
2022/01/12 04:35:33;;;;;;;70.90;28.85;;;;;;;2.65;100.00;103274.47;5088649;28;20190;-47
2022/01/12 04:38:00;;;;;;;87.72;30.00;;;;;;;2.64;100.00;103272.66;5072556;28;20713;-46
2022/01/12 04:40:26;;;;;;;94.93;31.33;;;;;;;2.64;100.00;103280.59;5089230;28;20307;-46
2022/01/12 04:42:53;;;;;;;90.47;29.80;;;;;;;2.67;100.00;103291.31;5090163;28;20208;-46
2022/01/12 04:50:28;;;;;;;83.75;29.38;;;;;;;2.73;100.00;103296.78;5099054;28;20192;-47
2022/01/12 04:52:53;;;;;;;80.13;28.52;;;;;;;2.76;100.00;103288.97;5108408;28;20196;-44
2022/01/12 04:55:19;;;;;;;84.43;29.20;;;;;;;2.76;100.00;103293.38;5110354;28;20193;-46
2022/01/12 04:57:44;;;;;;;94.22;30.30;;;;;;;2.78;100.00;103284.63;5110134;28;20165;-46
2022/01/12 05:00:15;;;;;;;87.15;28.17;;;;;;;2.72;100.00;103289.72;5106226;28;20214;-46
2022/01/12 05:13:40;;;;;;;74.55;27.65;;;;;;;2.74;100.00;103292.44;5109270;28;20173;-45
2022/01/12 05:16:09;;;;;;;61.33;24.92;;;;;;;2.78;100.00;103305.81;5108317;28;20208;-47
2022/01/12 05:18:36;;;;;;;63.25;25.45;;;;;;;2.77;100.00;103301.34;5109380;28;20213;-47
2022/01/12 05:21:03;;;;;;;63.53;25.48;;;;;;;2.76;100.00;103302.22;5108686;28;20177;-43
2022/01/12 05:23:31;;;;;;;69.72;25.45;;;;;;;2.77;100.00;103288.13;5109044;28;20177;-46
2022/01/12 05:25:58;;;;;;;64.53;25.65;;;;;;;2.76;100.00;103291.63;5108399;28;20201;-46
2022/01/12 05:28:25;;;;;;;62.17;24.42;;;;;;;2.70;100.00;103298.47;5110301;28;20173;-47
2022/01/12 05:30:52;;;;;;;58.53;23.55;;;;;;;2.73;100.00;103294.16;5110142;28;20169;-45
2022/01/12 05:33:19;;;;;;;63.80;24.50;;;;;;;2.76;100.00;103301.31;5098623;28;20176;-42
2022/01/12 05:35:45;;;;;;;64.57;24.30;;;;;;;2.77;100.00;103305.75;5108757;28;20199;-43
2022/01/12 05:38:13;;;;;;;57.30;23.58;;;;;;;2.84;100.00;103291.88;5108998;28;20269;-41
2022/01/12 05:40:47;;;;;;;63.15;24.05;;;;;;;2.77;100.00;103298.69;5109053;28;20177;-45
2022/01/12 05:43:20;;;;;;;61.50;25.05;;;;;;;2.80;100.00;103306.78;5108698;28;20556;-44
2022/01/12 05:45:47;;;;;;;47.97;21.15;;;;;;;2.81;100.00;103313.84;5108085;28;20208;-44
2022/01/12 05:50:41;;;;;;;58.40;23.67;;;;;;;2.72;100.00;103340.00;5108682;28;20170;-41
2022/01/12 05:53:14;;;;;;;57.67;24.35;;;;;;;2.72;100.00;103325.88;5108723;28;20174;-39
2022/01/12 05:55:43;;;;;;;61.28;23.45;;;;;;;2.71;100.00;103330.25;5103393;28;20550;-42
2022/01/12 05:58:09;;;;;;;53.92;21.85;;;;;;;2.76;100.00;103343.69;5089563;28;20304;-41
2022/01/12 06:00:35;;;;;;;47.33;22.15;;;;;;;2.77;100.00;103340.16;5086872;28;20636;-42
2022/01/12 06:03:02;;;;;;;53.92;22.48;;;;;;;2.78;100.00;103332.28;5105626;28;20189;-42
2022/01/12 06:05:28;;;;;;;53.72;22.63;;;;;;;2.71;100.00;103334.66;5112634;28;20209;-40
2022/01/12 06:07:55;;;;;;;46.70;21.00;;;;;;;2.67;100.00;103329.28;5112503;28;20669;-42
2022/01/12 06:10:24;;;;;;;47.92;20.23;;;;;;;2.67;100.00;103333.66;5112752;28;20256;-43
2022/01/12 06:12:51;;;;;;;45.45;20.55;;;;;;;2.72;100.00;103339.13;5112375;28;20161;-43
2022/01/12 06:15:17;;;;;;;51.45;20.92;;;;;;;2.71;100.00;103342.59;5111878;28;20288;-40
2022/01/12 06:17:43;;;;;;;49.88;21.65;;;;;;;2.65;100.00;103341.53;5112227;28;20685;-41
2022/01/12 06:20:09;;;;;;;50.50;22.30;;;;;;;2.64;100.00;103349.44;5112279;28;20264;-41
2022/01/12 06:23:09;;;;;;;50.08;20.95;;;;;;;2.67;100.00;103344.25;5070482;28;20328;-42
2022/01/12 06:25:37;;;;;;;47.08;20.38;;;;;;;2.63;100.00;103358.22;5086996;28;20274;-40
2022/01/12 06:28:40;;;;;;;46.88;20.05;;;;;;;2.63;100.00;103358.22;5112990;28;20177;-40
2022/01/12 06:31:10;;;;;;;49.17;19.98;;;;;;;2.60;100.00;103363.38;5110078;28;20230;-42
2022/01/12 06:33:42;;;;;;;47.58;20.17;;;;;;;2.67;100.00;103362.78;5112359;28;20173;-43
2022/01/12 06:36:11;;;;;;;47.58;21.13;;;;;;;2.67;100.00;103361.03;5113314;28;20185;-44
2022/01/12 06:38:36;;;;;;;49.28;20.30;;;;;;;2.70;100.00;103365.53;5112127;28;20193;-42
2022/01/12 06:41:03;;;;;;;47.15;19.50;;;;;;;2.63;100.00;103369.69;5112180;28;20743;-41
2022/01/12 06:43:29;;;;;;;47.25;19.77;;;;;;;2.63;100.00;103366.16;5111775;28;20177;-41
2022/01/12 06:45:56;;;;;;;44.08;19.85;;;;;;;2.55;100.00;103364.97;5111810;28;20284;-42
2022/01/12 06:48:22;;;;;;;47.80;19.63;;;;;;;2.55;100.00;103365.88;5113388;28;20168;-43
2022/01/12 06:50:47;;;;;;;51.53;22.30;;;;;;;2.51;100.00;103379.84;5111621;28;20176;-42
2022/01/12 06:53:12;;;;;;;47.58;20.95;;;;;;;2.47;100.00;103375.28;5111821;28;20179;-42
2022/01/12 06:55:38;;;;;;;46.88;20.02;;;;;;;2.46;100.00;103384.06;5107041;28;20692;-40
2022/01/12 06:58:04;;;;;;;44.35;20.20;;;;;;;2.43;100.00;103382.22;5091377;28;20705;-39
2022/01/12 07:00:29;;;;;;;46.60;18.85;;;;;;;2.39;100.00;103395.28;5092790;28;20526;-41
2022/01/12 07:02:55;;;;;;;46.88;20.25;;;;;;;2.34;100.00;103396.84;5092144;28;20178;-41
2022/01/12 07:05:25;;;;;;;47.00;20.80;;;;;;;2.40;100.00;103405.91;5090285;28;20202;-42
2022/01/12 07:07:51;;;;;;;48.55;20.75;;;;;;;2.38;100.00;103407.59;5090874;28;20177;-41
2022/01/12 07:10:28;;;;;;;44.63;18.48;;;;;;;2.48;100.00;103404.44;5091865;28;20223;-41
2022/01/12 07:12:59;;;;;;;49.55;20.48;;;;;;;2.46;100.00;103400.84;5090921;28;20205;-42
2022/01/12 07:15:24;;;;;;;47.83;20.77;;;;;;;2.42;100.00;103404.22;5097781;28;20193;-42
2022/01/12 07:17:50;;;;;;;52.83;21.55;;;;;;;2.45;100.00;103396.41;5106954;28;20173;-43
2022/01/12 07:20:16;;;;;;;50.10;20.33;;;;;;;2.43;100.00;103403.38;5111256;28;20177;-43
2022/01/12 07:22:42;;;;;;;48.92;20.45;;;;;;;2.43;100.00;103403.38;5109830;28;20269;-42
2022/01/12 07:25:08;;;;;;;49.28;21.70;;;;;;;2.47;100.00;103407.03;5112456;28;20229;-40
2022/01/12 07:27:34;;;;;;;49.60;21.23;;;;;;;2.45;100.00;103406.09;5112172;28;20170;-40
2022/01/12 07:30:00;;;;;;;57.65;20.77;;;;;;;2.46;100.00;103415.81;5111659;28;20618;-39
2022/01/12 07:32:27;;;;;;;51.30;21.92;;;;;;;2.39;100.00;103422.63;5111721;28;20200;-44
2022/01/12 07:34:52;;;;;;;48.15;20.58;;;;;;;2.35;100.00;103410.13;5112095;28;20329;-40
2022/01/12 07:37:18;;;;;;;53.13;23.08;;;;;;;2.36;100.00;103411.03;5111487;28;20252;-42
2022/01/12 07:39:44;;;;;;;55.67;22.38;;;;;;;2.37;100.00;103411.09;5111910;28;20248;-41
2022/01/12 07:42:11;;;;;;;62.70;22.60;;;;;;;2.21;100.00;103406.97;5111839;28;20199;-42
2022/01/12 07:44:39;;;;;;;51.10;21.95;;;;;;;2.23;100.00;103412.31;5111351;28;20170;-41
2022/01/12 07:47:05;;;;;;;60.05;22.70;;;;;;;2.22;100.00;103415.81;5111172;28;20206;-43
2022/01/12 07:49:31;;;;;;;66.93;22.85;;;;;;;2.20;100.00;103412.19;5111717;28;20166;-41
2022/01/12 07:51:57;;;;;;;60.85;23.92;;;;;;;2.19;100.00;103402.47;5111408;28;20181;-42
2022/01/12 07:54:23;;;;;;;53.75;23.17;;;;;;;2.29;100.00;103425.78;5111400;28;20643;-41
2022/01/12 07:56:48;;;;;;;56.38;24.13;;;;;;;2.30;100.00;103430.22;5110816;28;20178;-39
2022/01/12 07:59:14;;;;;;;50.25;22.85;;;;;;;2.24;100.00;103430.00;5111384;28;20177;-42
2022/01/12 08:01:39;;;;;;;51.15;22.00;;;;;;;2.16;100.00;103437.63;5108522;28;20182;-43
2022/01/12 08:04:05;;;;;;;52.70;21.63;;;;;;;2.21;100.00;103448.41;5109511;28;20188;-40
2022/01/12 08:06:30;;;;;;;54.55;20.77;;;;;;;2.27;100.00;103456.56;5110763;28;20208;-42
2022/01/12 08:08:56;;;;;;;52.08;20.50;;;;;;;2.33;100.00;103442.66;5110920;28;20249;-43
2022/01/12 08:11:22;;;;;;;55.05;20.83;;;;;;;2.34;100.00;103455.97;5110841;28;20166;-42
2022/01/12 08:13:49;;;;;;;61.72;22.55;;;;;;;2.25;100.00;103455.59;5110963;28;20256;-42
2022/01/12 08:16:14;;;;;;;67.55;22.92;;;;;;;2.23;100.00;103454.63;5110098;28;20201;-43
2022/01/12 08:18:40;;;;;;;72.00;23.27;;;;;;;2.25;100.00;103474.09;5111110;28;20673;-41
2022/01/12 08:21:06;;;;;;;55.13;22.35;;;;;;;2.35;100.00;103473.63;5110729;28;20204;-40
2022/01/12 08:23:33;;;;;;;49.95;20.85;;;;;;;2.36;100.00;103483.38;5110818;28;20641;-40
2022/01/12 08:25:58;;;;;;;48.95;21.38;;;;;;;2.30;100.00;103474.31;5109952;28;20197;-41
2022/01/12 08:28:23;;;;;;;51.33;20.83;;;;;;;2.24;100.00;103469.69;5110359;28;20547;-41
2022/01/12 08:30:49;;;;;;;50.42;20.02;;;;;;;2.33;100.00;103472.66;5110904;28;20161;-42
2022/01/12 08:33:15;;;;;;;51.03;20.73;;;;;;;2.28;100.00;103471.59;5109077;28;20526;-41
2022/01/12 08:35:41;;;;;;;50.33;20.48;;;;;;;2.25;100.00;103484.69;5110471;28;20197;-42
2022/01/12 08:38:07;;;;;;;50.53;20.02;;;;;;;2.34;100.00;103500.94;5111114;28;20257;-41
2022/01/12 08:40:33;;;;;;;47.45;20.30;;;;;;;2.41;100.00;103492.38;5110500;28;20222;-42
2022/01/12 08:42:59;;;;;;;45.17;19.98;;;;;;;2.42;100.00;103490.63;5109588;28;20181;-39
2022/01/12 08:45:25;;;;;;;53.33;21.08;;;;;;;2.34;100.00;103487.72;5110790;28;20570;-39
2022/01/12 08:47:50;;;;;;;53.95;19.60;;;;;;;2.32;100.00;103484.09;5110384;28;20169;-40
2022/01/12 08:50:16;;;;;;;54.70;20.85;;;;;;;2.31;100.00;103489.31;5111211;28;20188;-41
2022/01/12 08:52:47;;;;;;;49.22;21.00;;;;;;;2.32;100.00;103494.69;5105920;28;20549;-40
2022/01/12 08:55:15;;;;;;;42.28;19.88;;;;;;;2.36;100.00;103500.97;5108806;28;20201;-41
2022/01/12 08:57:41;;;;;;;47.08;19.30;;;;;;;2.30;100.00;103509.59;5109667;28;20905;-41
2022/01/12 09:00:08;;;;;;;49.42;20.02;;;;;;;2.35;100.00;103500.09;5110255;28;20162;-42
2022/01/12 09:02:34;;;;;;;46.20;21.30;;;;;;;2.40;100.00;103495.84;5110845;28;20609;-41
2022/01/12 09:04:59;;;;;;;53.55;20.75;;;;;;;2.35;100.00;103480.66;5110427;28;20192;-39
2022/01/12 09:07:24;;;;;;;57.97;19.63;;;;;;;2.39;100.00;103485.25;5110221;28;20230;-43
2022/01/12 09:09:50;;;;;;;49.05;19.05;;;;;;;2.31;100.00;103484.94;5110475;28;20173;-40
2022/01/12 09:12:16;;;;;;;28.85;15.63;;;;;;;2.30;100.00;103480.50;5110010;28;20212;-41
2022/01/12 09:14:41;;;;;;;61.95;16.42;;;;;;;2.13;100.00;103482.47;5110434;28;20273;-40
2022/01/12 09:17:17;;;;;;;41.35;14.30;;;;;;;2.19;100.00;103481.84;5108336;28;20166;-40
2022/01/12 09:19:43;;;;;;;85.50;16.50;;;;;;;2.11;100.00;103491.19;5110241;28;20177;-43
2022/01/12 09:22:09;;;;;;;40.95;15.27;;;;;;;2.09;100.00;103516.69;5109971;28;20165;-43
2022/01/12 09:24:35;;;;;;;45.67;16.58;;;;;;;2.11;100.00;103521.19;5109771;28;20199;-44
2022/01/12 09:27:00;;;;;;;53.38;16.77;;;;;;;2.13;100.00;103518.59;5109507;28;20692;-45
2022/01/12 09:29:26;;;;;;;41.92;16.58;;;;;;;2.22;100.00;103529.53;5110182;28;20178;-45
2022/01/12 09:31:51;;;;;;;47.58;17.67;;;;;;;2.25;100.00;103521.72;5110462;28;20172;-42
2022/01/12 09:34:17;;;;;;;64.25;15.90;;;;;;;2.18;100.00;103522.31;5110240;28;20543;-44
2022/01/12 09:36:42;;;;;;;45.55;16.02;;;;;;;2.32;100.00;103526.44;5109673;28;20201;-44
2022/01/12 09:39:08;;;;;;;63.33;17.83;;;;;;;2.19;100.00;103532.97;5113278;28;20165;-44
2022/01/12 09:41:35;;;;;;;79.47;17.75;;;;;;;2.22;100.00;103535.72;5114027;28;20546;-43
2022/01/12 09:44:00;;;;;;;52.92;15.48;;;;;;;2.30;100.00;103533.41;5114260;28;20603;-43
2022/01/12 09:46:26;;;;;;;44.35;14.23;;;;;;;2.34;100.00;103532.69;5113657;28;20284;-42
2022/01/12 09:48:53;;;;;;;39.92;13.05;;;;;;;2.48;100.00;103527.94;5111051;27;20633;-42
2022/01/12 09:51:21;;;;;;;34.80;13.25;;;;;;;2.41;100.00;103534.72;5112981;28;20218;-45
2022/01/12 09:53:46;;;;;;;26.70;12.35;;;;;;;2.42;100.00;103538.25;5114193;28;20571;-44
2022/01/12 09:56:28;;;;;;;33.45;12.85;;;;;;;2.36;100.00;103538.94;5114181;28;20185;-44
2022/01/12 09:59:00;;;;;;;23.25;12.32;;;;;;;2.39;100.00;103532.88;5112647;28;20173;-43
2022/01/12 10:01:34;;;;;;;29.98;12.82;;;;;;;2.41;100.00;103532.06;5114131;28;20169;-43
2022/01/12 10:04:06;;;;;;;24.92;13.00;;;;;;;2.44;100.00;103526.00;5114155;28;20264;-44
2022/01/12 10:06:35;;;;;;;30.90;12.05;;;;;;;2.41;100.00;103523.25;5112893;28;20204;-44
2022/01/12 10:09:00;;;;;;;20.77;9.27;;;;;;;2.45;100.00;103526.06;5113796;28;20669;-42
2022/01/12 10:11:26;;;;;;;13.32;7.60;;;;;;;2.53;100.00;103530.75;5112327;28;20224;-44
2022/01/12 10:14:00;;;;;;;15.68;7.22;;;;;;;2.61;100.00;103537.25;5112535;28;20680;-44
2022/01/12 10:16:26;;;;;;;11.80;6.70;;;;;;;2.66;100.00;103544.50;5111917;28;20218;-42
2022/01/12 10:18:58;;;;;;;11.73;6.68;;;;;;;2.72;100.00;103532.34;5113776;27;20583;-42
2022/01/12 10:21:34;;;;;;;11.95;6.55;;;;;;;2.77;100.00;103542.25;5113778;28;20306;-42
2022/01/12 10:24:03;;;;;;;9.30;5.95;;;;;;;2.99;100.00;103537.75;5112200;28;20225;-43
2022/01/12 10:26:43;;;;;;;12.10;6.68;;;;;;;2.97;100.00;103528.88;5113021;28;20223;-42
2022/01/12 10:29:11;;;;;;;13.48;6.75;;;;;;;2.96;100.00;103529.72;5113174;28;20272;-42
2022/01/12 10:32:00;;;;;;;14.57;7.80;;;;;;;3.05;100.00;103530.06;5113416;28;20165;-44
2022/01/12 10:34:28;;;;;;;13.98;7.38;;;;;;;3.05;100.00;103520.34;5113161;28;20233;-43
2022/01/12 10:36:55;;;;;;;17.85;7.25;;;;;;;3.05;100.00;103530.06;5112774;28;20165;-43
2022/01/12 10:39:23;;;;;;;11.15;5.97;;;;;;;3.11;100.00;103517.03;5110186;28;20882;-42
2022/01/12 10:41:53;;;;;;;13.20;6.28;;;;;;;3.24;100.00;103513.09;5112756;28;20234;-46
2022/01/12 10:44:24;;;;;;;14.68;6.45;;;;;;;3.26;100.00;103496.38;5112487;28;20169;-43
2022/01/12 10:46:50;;;;;;;12.73;6.43;;;;;;;3.35;100.00;103487.84;5111962;28;20219;-48
2022/01/12 10:49:20;;;;;;;12.63;6.70;;;;;;;3.45;100.00;103486.41;5111824;28;20162;-43
2022/01/12 10:51:54;;;;;;;16.55;6.50;;;;;;;3.44;100.00;103482.88;5112434;28;20185;-43
2022/01/12 10:54:19;;;;;;;12.38;6.55;;;;;;;3.50;100.00;103485.72;5113167;28;20173;-45
2022/01/12 10:56:45;;;;;;;15.95;6.35;;;;;;;3.63;100.00;103479.09;5098967;28;20198;-43
2022/01/12 10:59:17;;;;;;;18.60;6.70;;;;;;;3.63;100.00;103475.50;5092480;28;20219;-42
2022/01/12 11:01:44;;;;;;;14.35;6.28;;;;;;;3.69;100.00;103479.25;5091343;28;20177;-44
2022/01/12 11:04:10;;;;;;;14.38;6.43;;;;;;;3.80;100.00;103481.38;5092262;28;20261;-42
2022/01/12 11:06:37;;;;;;;15.32;6.55;;;;;;;3.80;100.00;103478.72;5091983;28;20209;-43
2022/01/12 11:09:03;;;;;;;15.23;6.30;;;;;;;3.69;100.00;103468.66;5092125;28;20170;-45
2022/01/12 11:11:29;;;;;;;16.60;6.35;;;;;;;3.84;100.00;103465.63;5092369;28;20623;-43
2022/01/12 11:13:55;;;;;;;14.00;5.78;;;;;;;3.77;100.00;103452.13;5092155;28;20178;-44
2022/01/12 11:16:23;;;;;;;20.60;6.20;;;;;;;3.72;100.00;103454.63;5091824;28;20201;-44
2022/01/12 11:18:50;;;;;;;13.98;6.13;;;;;;;3.63;100.00;103454.31;5092458;28;20192;-43
2022/01/12 11:21:34;;;;;;;25.70;6.75;;;;;;;3.56;100.00;103458.50;5091937;28;20177;-42
2022/01/12 11:24:00;;;;;;;15.75;6.40;;;;;;;3.62;100.00;103463.13;5092226;28;20182;-42
2022/01/12 11:26:28;;;;;;;18.45;7.22;;;;;;;3.65;100.00;103466.78;5091041;28;20280;-43
2022/01/12 11:28:55;;;;;;;16.52;7.30;;;;;;;3.76;100.00;103460.91;5090777;28;20178;-42
2022/01/12 11:31:32;;;;;;;21.13;7.97;;;;;;;3.79;100.00;103450.44;5090485;28;20185;-42
2022/01/12 11:33:58;;;;;;;15.95;6.75;;;;;;;3.81;100.00;103446.06;5091804;28;20166;-45
2022/01/12 11:36:28;;;;;;;18.40;6.55;;;;;;;3.85;100.00;103451.53;5091145;28;20646;-41
2022/01/12 11:39:02;;;;;;;13.07;5.85;;;;;;;3.90;100.00;103459.63;5091550;28;20650;-44
2022/01/12 11:41:33;;;;;;;18.33;7.18;;;;;;;3.95;100.00;103467.72;5091584;28;20184;-44
2022/01/12 11:44:05;;;;;;;15.90;6.97;;;;;;;3.94;100.00;103474.78;5091346;28;20203;-41
2022/01/12 11:46:54;;;;;;;19.92;7.63;;;;;;;4.03;100.00;103485.69;5090861;28;20210;-46
2022/01/12 11:49:30;;;;;;;15.40;6.78;;;;;;;4.01;100.00;103475.88;5091392;28;20236;-45
2022/01/12 11:51:57;;;;;;;22.55;7.22;;;;;;;4.10;100.00;103485.00;5091059;28;20182;-44
2022/01/12 11:54:33;;;;;;;19.30;7.32;;;;;;;4.15;100.00;103489.56;5090907;28;20178;-41
2022/01/12 11:57:03;;;;;;;25.02;7.60;;;;;;;4.19;100.00;103494.13;5090765;28;20181;-43
2022/01/12 11:59:31;;;;;;;20.98;7.05;;;;;;;4.22;100.00;103475.63;5091007;28;20209;-43
2022/01/12 12:02:12;;;;;;;23.70;7.50;;;;;;;4.28;100.00;103460.78;5089815;28;20286;-44
2022/01/12 12:04:38;;;;;;;19.38;6.85;;;;;;;4.36;100.00;103476.97;5091238;28;20181;-43
2022/01/12 12:07:11;;;;;;;19.33;6.63;;;;;;;4.31;100.00;103467.97;5090618;28;20198;-41
2022/01/12 12:09:43;;;;;;;19.90;6.70;;;;;;;4.44;100.00;103471.84;5091117;28;20182;-42
2022/01/12 12:12:17;;;;;;;29.98;8.23;;;;;;;4.46;100.00;103471.06;5090881;28;20222;-43
2022/01/12 12:14:47;;;;;;;24.67;6.50;;;;;;;4.47;100.00;103462.25;5090960;28;20205;-44
2022/01/12 12:17:14;;;;;;;23.55;7.30;;;;;;;4.51;100.00;103469.44;5090401;28;20185;-44
2022/01/12 12:19:40;;;;;;;21.83;7.47;;;;;;;4.49;100.00;103452.56;5091176;28;20215;-41
2022/01/12 12:22:33;;;;;;;27.55;7.03;;;;;;;4.51;100.00;103457.94;5090598;28;20182;-43
2022/01/12 12:25:00;;;;;;;24.73;6.97;;;;;;;4.56;100.00;103456.31;5086397;28;20296;-42
2022/01/12 12:27:27;;;;;;;26.60;6.63;;;;;;;4.58;100.00;103446.63;5090383;28;20258;-45
2022/01/12 12:29:53;;;;;;;25.80;6.88;;;;;;;4.61;100.00;103451.13;5090603;28;20170;-41
2022/01/12 12:32:21;;;;;;;16.35;5.15;;;;;;;4.68;100.00;103442.47;5090616;28;20700;-41
2022/01/12 12:34:47;;;;;;;28.98;9.63;;;;;;;4.69;100.00;103446.94;5090164;28;20182;-41
2022/01/12 12:37:17;;;;;;;26.10;7.50;;;;;;;4.75;100.00;103450.66;5090332;28;20291;-42